createdAt,value
2023-01-08T00:01:43.080Z,64.84
2023-01-08T00:04:45.196Z,64.48
2023-01-08T00:07:47.087Z,64.33
2023-01-08T00:10:55.805Z,64.33
2023-01-08T00:13:57.711Z,64.58
2023-01-08T00:16:59.734Z,64.73
2023-01-08T00:20:01.608Z,64.47
2023-01-08T00:23:03.510Z,64.38
2023-01-08T00:26:09.041Z,64.51
2023-01-08T00:29:10.896Z,64.22
2023-01-08T00:32:12.777Z,64.37
2023-01-08T00:35:14.650Z,64.91
2023-01-08T00:38:16.577Z,64.85
2023-01-08T00:41:18.676Z,64.86
2023-01-08T00:44:20.564Z,64.82
2023-01-08T00:47:22.417Z,64.65
2023-01-08T00:50:24.900Z,64.24
2023-01-08T00:53:26.708Z,64.60
2023-01-08T00:56:28.526Z,64.45
2023-01-08T00:59:30.298Z,64.16
2023-01-08T01:02:32.384Z,64.19
2023-01-08T01:05:34.158Z,64.50
2023-01-08T01:08:36.043Z,63.94
2023-01-08T01:11:40.770Z,63.95
2023-01-08T01:14:42.584Z,64.35
2023-01-08T01:17:45.987Z,64.19
2023-01-08T01:20:47.870Z,63.87
2023-01-08T01:23:50.353Z,64.06
2023-01-08T01:26:52.552Z,64.10
2023-01-08T01:29:54.550Z,64.17
2023-01-08T01:32:56.361Z,63.81
2023-01-08T01:36:02.500Z,64.07
2023-01-08T01:39:05.362Z,63.97
2023-01-08T01:42:27.185Z,63.75
2023-01-08T01:45:29.105Z,64.35
2023-01-08T01:48:31.007Z,64.01
2023-01-08T01:51:34.645Z,64.07
2023-01-08T01:54:36.901Z,63.98
2023-01-08T01:57:39.861Z,64.02
2023-01-08T02:00:43.276Z,63.96
2023-01-08T02:03:45.251Z,63.93
2023-01-08T02:06:49.793Z,63.90
2023-01-08T02:10:21.184Z,63.94
2023-01-08T02:13:30.725Z,64.39
2023-01-08T02:16:50.497Z,64.38
2023-01-08T02:20:08.750Z,64.00
2023-01-08T02:23:32.070Z,64.14
2023-01-08T02:26:36.056Z,64.18
2023-01-08T02:29:38.551Z,64.05
2023-01-08T02:32:42.831Z,64.36
2023-01-08T02:35:52.210Z,64.17
2023-01-08T02:39:13.004Z,63.93
2023-01-08T02:42:33.722Z,64.13
2023-01-08T02:45:49.174Z,63.60
2023-01-08T02:49:01.549Z,63.82
2023-01-08T02:52:06.110Z,64.76
2023-01-08T02:55:09.485Z,64.16
2023-01-08T02:58:12.767Z,64.19
2023-01-08T03:01:17.279Z,63.95
2023-01-08T03:04:23.050Z,63.76
2023-01-08T03:07:25.065Z,64.03
2023-01-08T03:10:30.210Z,63.71
2023-01-08T03:13:39.903Z,63.92
2023-01-08T03:16:47.913Z,64.47
2023-01-08T03:20:10.468Z,64.32
2023-01-08T03:23:14.832Z,64.25
2023-01-08T03:26:22.086Z,64.10
2023-01-08T03:29:25.865Z,64.01
2023-01-08T03:32:30.055Z,64.22
2023-01-08T03:35:33.541Z,64.51
2023-01-08T03:38:42.578Z,64.38
2023-01-08T03:41:46.085Z,63.86
2023-01-08T03:44:48.263Z,64.02
2023-01-08T03:47:50.614Z,63.75
2023-01-08T03:50:52.563Z,63.82
2023-01-08T03:53:58.882Z,64.30
2023-01-08T03:57:00.856Z,63.73
2023-01-08T04:00:03.030Z,64.00
2023-01-08T04:03:07.018Z,63.73
2023-01-08T04:06:08.929Z,63.74
2023-01-08T04:09:10.770Z,63.82
2023-01-08T04:12:12.867Z,63.82
2023-01-08T04:15:14.762Z,63.83
2023-01-08T04:18:21.467Z,64.09
2023-01-08T04:21:23.346Z,63.85
2023-01-08T04:24:25.198Z,63.79
2023-01-08T04:27:27.076Z,64.43
2023-01-08T04:30:28.896Z,64.28
2023-01-08T04:33:30.670Z,64.36
2023-01-08T04:36:32.549Z,64.40
2023-01-08T04:39:34.410Z,64.09
2023-01-08T04:42:36.301Z,64.11
2023-01-08T04:45:38.159Z,64.13
2023-01-08T04:48:40.407Z,64.20
2023-01-08T04:51:42.403Z,64.44
2023-01-08T04:54:44.234Z,64.33
2023-01-08T04:57:46.426Z,64.60
2023-01-08T05:00:48.321Z,64.67
2023-01-08T05:04:01.953Z,64.50
2023-01-08T05:07:04.678Z,64.78
2023-01-08T05:10:06.781Z,64.92
2023-01-08T05:13:08.687Z,64.97
2023-01-08T05:16:10.596Z,65.20
2023-01-08T05:19:12.471Z,65.07
2023-01-08T05:22:14.352Z,65.31
2023-01-08T05:25:16.220Z,65.05
2023-01-08T05:28:18.060Z,64.95
2023-01-08T05:31:19.975Z,65.12
2023-01-08T05:34:21.880Z,65.30
2023-01-08T05:37:23.795Z,65.23
2023-01-08T05:40:25.711Z,65.36
2023-01-08T05:43:29.306Z,65.52
2023-01-08T05:46:31.174Z,65.25
2023-01-08T05:49:33.093Z,65.38
2023-01-08T05:52:35.072Z,65.84
2023-01-08T05:55:37.264Z,65.52
2023-01-08T05:58:39.248Z,65.63
2023-01-08T06:01:41.147Z,65.95
2023-01-08T06:04:43.824Z,66.26
2023-01-08T06:07:45.752Z,66.06
2023-01-08T06:10:47.614Z,66.15
2023-01-08T06:13:49.452Z,65.91
2023-01-08T06:16:51.343Z,65.79
2023-01-08T06:19:53.162Z,65.68
2023-01-08T06:22:55.172Z,65.97
2023-01-08T06:25:58.401Z,66.05
2023-01-08T06:29:00.688Z,66.42
2023-01-08T06:32:02.613Z,66.14
2023-01-08T06:35:04.953Z,66.06
2023-01-08T06:38:06.930Z,66.20
2023-01-08T06:41:10.675Z,66.37
2023-01-08T06:44:13.246Z,66.65
2023-01-08T06:47:15.042Z,66.63
2023-01-08T06:50:16.980Z,66.31
2023-01-08T06:53:18.925Z,66.17
2023-01-08T06:56:20.781Z,66.29
2023-01-08T06:59:22.625Z,66.11
2023-01-08T07:02:25.680Z,66.54
2023-01-08T07:05:27.677Z,66.43
2023-01-08T07:08:29.585Z,65.87
2023-01-08T07:11:31.448Z,66.27
2023-01-08T07:14:33.281Z,65.60
2023-01-08T07:17:35.560Z,65.82
2023-01-08T07:20:38.565Z,64.76
2023-01-08T07:23:42.013Z,65.14
2023-01-08T07:26:43.900Z,64.63
2023-01-08T07:29:45.801Z,64.10
2023-01-08T07:32:47.622Z,63.84
2023-01-08T07:35:54.112Z,63.46
2023-01-08T07:38:55.952Z,63.32
2023-01-08T07:41:58.190Z,63.41
2023-01-08T07:45:00.093Z,63.17
2023-01-08T07:48:01.849Z,62.34
2023-01-08T07:51:06.291Z,62.06
2023-01-08T07:54:08.205Z,63.49
2023-01-08T07:57:10.052Z,62.61
2023-01-08T08:00:12.218Z,60.95
2023-01-08T08:03:14.447Z,62.37
2023-01-08T08:06:16.385Z,61.98
2023-01-08T08:09:18.218Z,60.03
2023-01-08T08:12:20.113Z,60.09
2023-01-08T08:15:21.958Z,59.89
2023-01-08T08:18:23.805Z,59.12
2023-01-08T08:21:26.065Z,59.44
2023-01-08T08:24:27.987Z,58.47
2023-01-08T08:27:29.835Z,57.37
2023-01-08T08:30:34.379Z,57.22
2023-01-08T08:33:36.250Z,56.67
2023-01-08T08:36:38.093Z,56.69
2023-01-08T08:39:39.956Z,56.28
2023-01-08T08:42:41.765Z,56.20
2023-01-08T08:45:43.628Z,55.79
2023-01-08T08:48:46.385Z,55.90
2023-01-08T08:51:48.248Z,55.45
2023-01-08T08:54:50.105Z,55.49
2023-01-08T08:57:52.968Z,55.80
2023-01-08T09:00:54.730Z,55.68
2023-01-08T09:03:56.562Z,56.06
2023-01-08T09:06:58.775Z,55.30
2023-01-08T09:10:00.718Z,55.48
2023-01-08T09:13:02.619Z,54.80
2023-01-08T09:16:04.905Z,55.78
2023-01-08T09:19:07.460Z,55.27
2023-01-08T09:22:09.370Z,54.66
2023-01-08T09:25:11.261Z,54.16
2023-01-08T09:28:13.289Z,54.37
2023-01-08T09:31:15.196Z,54.64
2023-01-08T09:34:17.097Z,54.48
2023-01-08T09:37:19.058Z,55.59
2023-01-08T09:40:24.346Z,55.28
2023-01-08T09:43:29.363Z,55.07
2023-01-08T09:46:31.989Z,55.07
2023-01-08T09:49:42.532Z,54.50
2023-01-08T09:52:44.415Z,55.12
2023-01-08T09:56:09.135Z,54.93
2023-01-08T09:59:16.579Z,55.27
2023-01-08T10:02:24.879Z,55.79
2023-01-08T10:05:28.438Z,56.08
2023-01-08T10:08:30.559Z,56.11
2023-01-08T10:11:43.275Z,56.22
2023-01-08T10:14:50.076Z,56.81
2023-01-08T10:18:18.020Z,56.81
2023-01-08T10:21:20.596Z,57.18
2023-01-08T10:24:36.895Z,56.34
2023-01-08T10:27:57.925Z,56.71
2023-01-08T10:31:11.095Z,57.39
2023-01-08T10:34:24.190Z,57.99
2023-01-08T10:37:27.552Z,57.69
2023-01-08T10:40:38.004Z,57.28
2023-01-08T10:43:54.184Z,57.19
2023-01-08T10:46:59.569Z,57.45
2023-01-08T10:50:04.736Z,56.96
2023-01-08T10:53:26.338Z,57.75
2023-01-08T10:56:30.949Z,57.66
2023-01-08T10:59:36.236Z,57.49
2023-01-08T11:02:40.559Z,57.86
2023-01-08T11:05:43.159Z,58.51
2023-01-08T11:08:54.263Z,58.33
2023-01-08T11:11:56.514Z,58.49
2023-01-08T11:14:58.939Z,59.48
2023-01-08T11:18:23.169Z,59.47
2023-01-08T11:21:32.889Z,59.59
2023-01-08T11:24:36.940Z,59.39
2023-01-08T11:27:42.918Z,59.40
2023-01-08T11:30:53.725Z,59.51
2023-01-08T11:34:02.469Z,59.87
2023-01-08T11:38:00.079Z,60.11
2023-01-08T11:41:04.781Z,60.01
2023-01-08T11:44:19.286Z,60.08
2023-01-08T11:48:01.774Z,59.72
2023-01-08T11:51:15.395Z,60.77
2023-01-08T11:54:26.167Z,59.89
2023-01-08T11:57:42.780Z,60.33
2023-01-08T12:01:02.833Z,60.36
2023-01-08T12:04:42.961Z,59.94
2023-01-08T12:07:54.988Z,60.13
2023-01-08T12:11:15.643Z,60.55
2023-01-08T12:14:21.204Z,60.02
2023-01-08T12:17:38.798Z,60.49
2023-01-08T12:20:52.025Z,60.33
2023-01-08T12:24:17.509Z,60.54
2023-01-08T12:27:56.961Z,60.81
2023-01-08T12:31:27.644Z,60.46
2023-01-08T12:34:58.731Z,60.34
2023-01-08T12:38:11.347Z,60.77
2023-01-08T12:41:16.323Z,60.83
2023-01-08T12:44:26.515Z,60.94
2023-01-08T12:47:33.091Z,60.92
2023-01-08T12:50:38.984Z,61.19
2023-01-08T12:53:52.951Z,60.91
2023-01-08T12:57:02.081Z,60.99
2023-01-08T13:00:25.890Z,61.58
2023-01-08T13:03:29.895Z,61.35
2023-01-08T13:06:32.192Z,61.70
2023-01-08T13:09:34.105Z,61.56
2023-01-08T13:12:39.341Z,61.96
2023-01-08T13:15:41.194Z,61.61
2023-01-08T13:19:01.608Z,62.00
2023-01-08T13:22:03.767Z,62.33
2023-01-08T13:25:28.263Z,62.17
2023-01-08T13:28:38.900Z,62.52
2023-01-08T13:31:41.653Z,62.99
2023-01-08T13:34:43.458Z,62.51
2023-01-08T13:38:06.199Z,62.76
2023-01-08T13:41:37.414Z,62.44
2023-01-08T13:44:49.181Z,62.96
2023-01-08T13:47:51.160Z,63.12
2023-01-08T13:50:53.701Z,63.41
2023-01-08T13:53:55.683Z,63.35
2023-01-08T13:57:05.812Z,63.02
2023-01-08T14:00:17.575Z,63.02
2023-01-08T14:03:44.779Z,63.19
2023-01-08T14:06:46.694Z,63.67
2023-01-08T14:09:48.507Z,63.31
2023-01-08T14:12:51.597Z,63.90
2023-01-08T14:16:04.146Z,63.84
2023-01-08T14:19:06.313Z,63.77
2023-01-08T14:22:16.422Z,63.94
2023-01-08T14:25:20.148Z,63.85
2023-01-08T14:28:23.357Z,63.80
2023-01-08T14:31:27.225Z,64.13
2023-01-08T14:34:32.062Z,63.92
2023-01-08T14:37:33.999Z,64.45
2023-01-08T14:40:40.124Z,64.34
2023-01-08T14:43:44.759Z,64.61
2023-01-08T14:46:47.039Z,65.16
2023-01-08T14:49:52.993Z,65.04
2023-01-08T14:53:04.583Z,65.50
2023-01-08T14:56:07.226Z,65.49
2023-01-08T14:59:12.652Z,65.59
2023-01-08T15:02:29.394Z,65.37
2023-01-08T15:05:33.076Z,65.34
2023-01-08T15:08:45.310Z,65.98
2023-01-08T15:11:56.470Z,65.31
2023-01-08T15:15:10.127Z,65.79
2023-01-08T15:18:13.053Z,65.91
2023-01-08T15:21:23.841Z,65.87
2023-01-08T15:24:34.632Z,65.61
2023-01-08T15:27:37.542Z,65.80
2023-01-08T15:30:44.178Z,65.94
2023-01-08T15:33:46.033Z,65.45
2023-01-08T15:36:49.563Z,65.81
2023-01-08T15:39:51.487Z,66.04
2023-01-08T15:43:11.330Z,66.24
2023-01-08T15:46:13.209Z,66.25
2023-01-08T15:49:15.022Z,66.29
2023-01-08T15:52:23.395Z,66.15
2023-01-08T15:55:25.381Z,66.05
2023-01-08T15:58:27.187Z,65.88
2023-01-08T16:01:30.395Z,66.51
2023-01-08T16:04:32.300Z,66.38
2023-01-08T16:07:34.164Z,66.30
2023-01-08T16:10:35.956Z,66.91
2023-01-08T16:13:37.860Z,66.92
2023-01-08T16:16:39.864Z,66.96
2023-01-08T16:19:43.095Z,67.03
2023-01-08T16:22:45.168Z,66.42
2023-01-08T16:25:47.146Z,66.89
2023-01-08T16:28:48.985Z,67.27
2023-01-08T16:31:51.087Z,67.30
2023-01-08T16:34:54.930Z,67.41
2023-01-08T16:37:56.847Z,67.26
2023-01-08T16:40:59.629Z,66.93
2023-01-08T16:44:01.598Z,66.74
2023-01-08T16:47:03.715Z,66.46
2023-01-08T16:50:05.884Z,67.33
2023-01-08T16:53:07.775Z,67.07
2023-01-08T16:56:09.906Z,66.60
2023-01-08T16:59:22.720Z,67.12
2023-01-08T17:02:25.966Z,66.73
2023-01-08T17:05:27.760Z,66.59
2023-01-08T17:08:29.670Z,66.59
2023-01-08T17:11:32.266Z,67.02
2023-01-08T17:14:35.598Z,67.04
2023-01-08T17:17:37.526Z,66.81
2023-01-08T17:20:39.366Z,67.41
2023-01-08T17:23:41.692Z,67.76
2023-01-08T17:26:43.659Z,67.83
2023-01-08T17:29:45.529Z,67.73
2023-01-08T17:32:47.346Z,67.38
2023-01-08T17:35:49.221Z,67.35
2023-01-08T17:38:53.589Z,67.34
2023-01-08T17:42:14.023Z,67.56
2023-01-08T17:45:17.462Z,68.12
2023-01-08T17:48:19.491Z,67.60
2023-01-08T17:51:21.337Z,68.40
2023-01-08T17:54:24.215Z,67.99
2023-01-08T17:57:26.668Z,68.37
2023-01-08T18:00:28.705Z,68.24
2023-01-08T18:03:30.553Z,68.90
2023-01-08T18:06:34.373Z,68.71
2023-01-08T18:09:36.899Z,69.12
2023-01-08T18:12:40.581Z,68.80
2023-01-08T18:15:42.506Z,69.59
2023-01-08T18:18:44.579Z,69.18
2023-01-08T18:21:49.705Z,69.07
2023-01-08T18:24:51.787Z,68.81
2023-01-08T18:27:54.155Z,68.66
2023-01-08T18:30:56.030Z,68.84
2023-01-08T18:33:58.558Z,68.61
2023-01-08T18:37:00.434Z,68.97
2023-01-08T18:40:02.571Z,68.92
2023-01-08T18:43:04.459Z,69.20
2023-01-08T18:46:08.065Z,69.23
2023-01-08T18:49:09.924Z,68.95
2023-01-08T18:52:14.010Z,69.28
2023-01-08T18:55:15.948Z,69.80
2023-01-08T18:58:17.821Z,69.72
2023-01-08T19:01:19.886Z,69.88
2023-01-08T19:04:21.777Z,70.03
2023-01-08T19:07:23.873Z,69.69
2023-01-08T19:10:25.769Z,69.72
2023-01-08T19:13:27.672Z,70.02
2023-01-08T19:16:29.682Z,70.06
2023-01-08T19:19:31.661Z,69.94
2023-01-08T19:22:33.777Z,69.80
2023-01-08T19:25:39.680Z,69.94
2023-01-08T19:28:42.829Z,69.92
2023-01-08T19:31:45.069Z,69.73
2023-01-08T19:34:47.583Z,69.58
2023-01-08T19:37:49.460Z,70.03
2023-01-08T19:40:51.280Z,70.13
2023-01-08T19:43:54.785Z,70.18
2023-01-08T19:46:56.636Z,70.04
2023-01-08T19:49:58.455Z,69.69
2023-01-08T19:53:00.588Z,69.78
2023-01-08T19:56:07.516Z,69.33
2023-01-08T19:59:11.362Z,69.19
2023-01-08T20:02:13.596Z,69.10
2023-01-08T20:05:15.505Z,69.49
2023-01-08T20:08:17.650Z,69.58
2023-01-08T20:11:21.305Z,69.22
2023-01-08T20:14:23.357Z,69.79
2023-01-08T20:17:25.353Z,69.29
2023-01-08T20:20:27.416Z,69.66
2023-01-08T20:23:29.444Z,69.88
2023-01-08T20:26:32.306Z,69.28
2023-01-08T20:29:34.232Z,70.02
2023-01-08T20:32:36.672Z,69.96
2023-01-08T20:35:38.691Z,69.79
2023-01-08T20:38:41.340Z,69.53
2023-01-08T20:41:50.263Z,70.07
2023-01-08T20:45:05.789Z,69.99
2023-01-08T20:48:07.882Z,69.91
2023-01-08T20:51:12.839Z,69.87
2023-01-08T20:54:16.331Z,69.79
2023-01-08T20:57:18.330Z,70.36
2023-01-08T21:00:22.080Z,69.70
2023-01-08T21:03:24.095Z,69.93
2023-01-08T21:06:29.069Z,70.09
2023-01-08T21:09:31.054Z,70.13
2023-01-08T21:12:35.696Z,70.20
2023-01-08T21:15:37.867Z,69.87
2023-01-08T21:18:43.989Z,69.82
2023-01-08T21:21:45.984Z,69.39
2023-01-08T21:24:47.820Z,69.57
2023-01-08T21:27:49.637Z,70.06
2023-01-08T21:30:52.254Z,69.88
2023-01-08T21:33:56.741Z,69.52
2023-01-08T21:36:58.605Z,69.61
2023-01-08T21:40:00.523Z,69.42
2023-01-08T21:43:20.847Z,69.88
2023-01-08T21:46:28.168Z,69.95
2023-01-08T21:49:30.200Z,69.38
2023-01-08T21:52:50.863Z,69.70
2023-01-08T21:55:52.721Z,69.22
2023-01-08T21:58:54.536Z,69.63
2023-01-08T22:01:56.441Z,69.16
2023-01-08T22:04:58.452Z,68.95
2023-01-08T22:08:00.203Z,68.35
2023-01-08T22:11:06.698Z,68.79
2023-01-08T22:14:08.650Z,68.94
2023-01-08T22:17:10.654Z,68.91
2023-01-08T22:20:14.131Z,69.12
2023-01-08T22:23:15.935Z,69.49
2023-01-08T22:26:20.145Z,69.34
2023-01-08T22:29:22.013Z,69.54
2023-01-08T22:32:23.908Z,69.78
2023-01-08T22:35:25.790Z,68.94
2023-01-08T22:38:27.626Z,69.14
2023-01-08T22:41:29.490Z,68.92
2023-01-08T22:44:31.400Z,68.61
2023-01-08T22:47:33.180Z,68.99
2023-01-08T22:50:35.183Z,68.34
2023-01-08T22:53:37.529Z,68.67
2023-01-08T22:56:39.594Z,68.43
2023-01-08T22:59:41.495Z,68.64
2023-01-08T23:02:43.373Z,68.92
2023-01-08T23:05:45.193Z,69.06
2023-01-08T23:08:47.768Z,69.26
2023-01-08T23:11:49.629Z,68.95
2023-01-08T23:14:51.498Z,69.03
2023-01-08T23:17:53.500Z,69.16
2023-01-08T23:21:06.960Z,69.35
2023-01-08T23:24:12.262Z,69.02
2023-01-08T23:27:14.357Z,69.49
2023-01-08T23:30:16.671Z,69.65
2023-01-08T23:33:18.487Z,69.92
2023-01-08T23:36:21.510Z,69.38
2023-01-08T23:39:26.625Z,69.01
2023-01-08T23:42:29.591Z,69.16
2023-01-08T23:45:31.479Z,69.50
2023-01-08T23:48:33.901Z,69.25
2023-01-08T23:51:36.589Z,69.34
2023-01-08T23:54:38.375Z,70.23
2023-01-08T23:57:40.145Z,70.04
